Time;durP1;ratioP1;P1;durP2;ratioP2;P2;SDS_P1;SDS_P2;PMS_P1;PMS_P2;Temp;Humidity;BMP_temperature;BMP_pressure;BME280_temperature;BME280_humidity;BME280_pressure;Samples;Min_cycle;Max_cycle;Signal;HPM_P1;HPM_P2
2023/06/02 03:00:13;;;;;;;6.70;3.80;;;23.10;39.50;;;;;;6064264;22;45952;-63
2023/06/02 03:02:39;;;;;;;3.65;3.03;;;23.10;39.50;;;;;;4928413;28;46767;-62
2023/06/02 03:05:06;;;;;;;4.13;2.80;;;23.10;39.60;;;;;;4951920;28;46825;-65
2023/06/02 03:07:31;;;;;;;3.33;2.83;;;23.00;39.60;;;;;;4972534;28;45962;-59
2023/06/02 03:09:57;;;;;;;6.30;3.05;;;23.00;39.70;;;;;;4972696;28;45635;-57
2023/06/02 03:12:22;;;;;;;4.68;3.00;;;23.00;39.80;;;;;;4962625;28;46124;-59
2023/06/02 03:14:48;;;;;;;4.57;3.40;;;23.00;39.90;;;;;;4961885;28;46052;-56
2023/06/02 03:17:13;;;;;;;5.43;3.13;;;23.00;40.00;;;;;;4959473;28;45673;-63
2023/06/02 03:19:39;;;;;;;4.85;3.00;;;22.90;39.90;;;;;;4949734;28;45740;-60
2023/06/02 03:22:06;;;;;;;3.85;3.15;;;23.00;40.00;;;;;;4960940;28;45766;-58
2023/06/02 03:24:32;;;;;;;7.05;2.83;;;23.00;40.00;;;;;;4969053;28;45242;-59
2023/06/02 03:26:57;;;;;;;5.22;3.13;;;23.00;40.00;;;;;;4965055;28;46062;-59
2023/06/02 03:29:23;;;;;;;5.75;2.88;;;23.00;40.00;;;;;;4959123;28;45582;-58
2023/06/02 03:31:50;;;;;;;7.53;3.30;;;23.00;40.00;;;;;;4958618;28;46445;-58
2023/06/02 03:34:16;;;;;;;3.80;3.17;;;22.90;40.10;;;;;;4970976;28;45515;-58
2023/06/02 03:36:41;;;;;;;6.97;3.17;;;22.90;40.00;;;;;;4961776;28;45944;-62
2023/06/02 03:39:07;;;;;;;3.90;3.50;;;22.90;40.10;;;;;;4969586;28;45624;-61
2023/06/02 03:41:33;;;;;;;3.65;2.90;;;22.90;40.20;;;;;;4960095;28;45722;-59
2023/06/02 03:44:00;;;;;;;4.45;3.38;;;22.90;40.20;;;;;;4963260;28;46134;-57
2023/06/02 03:46:25;;;;;;;3.83;3.15;;;22.80;40.30;;;;;;4956114;28;46293;-59
2023/06/02 03:48:51;;;;;;;7.55;3.38;;;22.80;40.40;;;;;;4965430;28;45474;-59
2023/06/02 03:51:16;;;;;;;4.72;3.10;;;22.80;40.40;;;;;;4964156;28;44977;-60
2023/06/02 03:53:42;;;;;;;2.90;2.60;;;22.80;40.50;;;;;;4972268;28;45583;-61
2023/06/02 03:56:08;;;;;;;4.57;3.35;;;22.80;40.50;;;;;;4963690;28;45812;-59
2023/06/02 03:58:33;;;;;;;5.55;3.25;;;22.80;40.40;;;;;;4969117;28;44946;-59
2023/06/02 04:00:59;;;;;;;5.20;3.20;;;22.80;40.50;;;;;;4952511;28;45054;-65
2023/06/02 04:03:24;;;;;;;3.63;3.10;;;22.70;40.50;;;;;;4970867;28;45638;-57
2023/06/02 04:05:50;;;;;;;5.65;3.40;;;22.70;40.60;;;;;;4964371;28;46097;-57
2023/06/02 04:08:16;;;;;;;4.00;3.22;;;22.70;40.60;;;;;;4966623;28;44971;-59
2023/06/02 04:10:43;;;;;;;4.90;2.90;;;22.70;40.60;;;;;;4964165;28;45562;-56
2023/06/02 04:13:08;;;;;;;4.40;2.97;;;22.70;40.60;;;;;;4949449;28;45423;-61
2023/06/02 04:15:34;;;;;;;3.92;2.92;;;22.70;40.60;;;;;;4960369;28;46168;-59
2023/06/02 04:17:59;;;;;;;3.60;3.03;;;22.70;40.70;;;;;;4960983;28;47879;-60
2023/06/02 04:20:25;;;;;;;4.07;2.42;;;22.70;40.70;;;;;;4966966;28;45027;-60
2023/06/02 04:22:51;;;;;;;5.18;3.00;;;22.60;40.80;;;;;;4957629;28;45532;-59
2023/06/02 04:25:16;;;;;;;4.55;3.08;;;22.60;40.90;;;;;;4958687;28;45944;-59
2023/06/02 04:27:42;;;;;;;5.10;3.03;;;22.70;41.00;;;;;;4965990;28;45682;-61
2023/06/02 04:30:08;;;;;;;5.55;3.25;;;22.60;41.00;;;;;;4959999;28;45359;-59
2023/06/02 04:32:33;;;;;;;4.40;3.05;;;22.50;41.00;;;;;;4955269;28;46404;-61
2023/06/02 04:35:00;;;;;;;4.32;2.80;;;22.50;41.10;;;;;;4961452;28;46246;-64
2023/06/02 04:37:26;;;;;;;5.53;3.10;;;22.50;41.20;;;;;;4952729;28;45700;-61
2023/06/02 04:39:52;;;;;;;6.47;3.47;;;22.50;41.30;;;;;;4959994;28;45273;-59
2023/06/02 04:42:17;;;;;;;5.43;3.78;;;22.50;41.30;;;;;;4963189;28;45063;-60
2023/06/02 04:44:44;;;;;;;4.30;3.05;;;22.50;41.30;;;;;;4969221;28;46029;-62
2023/06/02 04:47:13;;;;;;;5.38;2.75;;;22.40;41.30;;;;;;4952756;28;45598;-58
2023/06/02 04:49:38;;;;;;;5.13;2.85;;;22.50;41.50;;;;;;4958027;28;45002;-59
2023/06/02 04:52:07;;;;;;;4.75;2.88;;;22.40;41.50;;;;;;4958882;28;45854;-60
2023/06/02 04:54:36;;;;;;;5.18;3.03;;;22.40;41.60;;;;;;4969609;28;45235;-62
2023/06/02 04:57:05;;;;;;;5.03;3.15;;;22.40;41.60;;;;;;4966434;28;45496;-55
2023/06/02 04:59:33;;;;;;;5.10;2.85;;;22.30;41.50;;;;;;4964384;28;44858;-58
2023/06/02 05:02:00;;;;;;;5.95;3.17;;;22.40;41.70;;;;;;4952153;28;45549;-60
2023/06/02 05:04:26;;;;;;;4.60;2.78;;;22.30;41.60;;;;;;4962222;28;45810;-60
2023/06/02 05:06:52;;;;;;;6.38;2.78;;;22.30;41.60;;;;;;4943171;28;45509;-60
2023/06/02 05:09:18;;;;;;;4.10;3.03;;;22.30;41.70;;;;;;4966326;28;45202;-54
2023/06/02 05:11:43;;;;;;;5.15;2.65;;;22.30;41.80;;;;;;4958697;28;45190;-58
2023/06/02 05:14:09;;;;;;;7.18;2.78;;;22.30;41.90;;;;;;4968154;28;46144;-58
2023/06/02 05:16:35;;;;;;;5.55;2.80;;;22.30;41.90;;;;;;4957513;28;45187;-59
2023/06/02 05:19:01;;;;;;;5.43;3.38;;;22.30;41.90;;;;;;4963767;28;45677;-61
2023/06/02 05:21:28;;;;;;;3.35;2.50;;;22.30;42.00;;;;;;4944664;28;45657;-59
2023/06/02 05:23:54;;;;;;;7.88;3.22;;;22.20;41.90;;;;;;4964502;28;46153;-61
2023/06/02 05:26:19;;;;;;;4.18;2.63;;;22.20;41.90;;;;;;4956557;28;45317;-61
2023/06/02 05:28:45;;;;;;;4.85;3.08;;;22.20;42.00;;;;;;4965817;28;45569;-62
2023/06/02 05:31:10;;;;;;;4.07;2.92;;;22.20;41.90;;;;;;4937706;28;45881;-61
2023/06/02 05:33:36;;;;;;;4.00;2.75;;;22.20;41.90;;;;;;4963046;28;46273;-58
2023/06/02 05:36:02;;;;;;;5.60;3.00;;;22.20;41.50;;;;;;4961075;28;45113;-60
2023/06/02 05:38:28;;;;;;;4.60;2.60;;;22.30;41.30;;;;;;4966011;28;45591;-59
2023/06/02 05:40:53;;;;;;;5.38;2.60;;;22.30;41.50;;;;;;4964426;28;45499;-60
2023/06/02 05:43:19;;;;;;;5.85;3.08;;;22.20;41.60;;;;;;4969404;28;45927;-61
2023/06/02 05:45:45;;;;;;;4.82;2.58;;;22.20;41.70;;;;;;4953106;28;45424;-60
2023/06/02 05:48:10;;;;;;;4.78;2.60;;;22.20;41.70;;;;;;4968591;28;44870;-56
2023/06/02 05:50:36;;;;;;;5.90;2.03;;;22.20;41.70;;;;;;4961024;28;45487;-60
2023/06/02 05:53:02;;;;;;;5.25;2.70;;;22.20;41.80;;;;;;4966491;28;46033;-58
2023/06/02 05:55:27;;;;;;;3.97;2.92;;;22.20;41.80;;;;;;4959057;28;44912;-56
2023/06/02 05:57:53;;;;;;;3.08;2.45;;;22.20;41.80;;;;;;4965771;28;45458;-59
2023/06/02 06:00:20;;;;;;;4.78;2.33;;;22.20;41.80;;;;;;4951545;28;45611;-66
2023/06/02 06:02:46;;;;;;;4.90;2.55;;;22.20;41.80;;;;;;4966930;28;46860;-59
2023/06/02 06:05:13;;;;;;;5.18;2.70;;;22.20;41.80;;;;;;4958064;28;44955;-62
2023/06/02 06:07:38;;;;;;;5.65;2.35;;;22.20;41.80;;;;;;4968258;28;45238;-60
2023/06/02 06:10:04;;;;;;;4.88;2.60;;;22.20;41.80;;;;;;4964772;28;45573;-60
2023/06/02 06:12:30;;;;;;;4.72;2.88;;;22.10;41.80;;;;;;4951262;28;47486;-60
2023/06/02 06:14:55;;;;;;;6.68;3.25;;;22.10;41.80;;;;;;4973133;28;45526;-60
2023/06/02 06:17:21;;;;;;;5.03;2.60;;;22.20;41.90;;;;;;4934664;28;45715;-56
2023/06/02 06:19:46;;;;;;;4.93;2.65;;;22.10;41.80;;;;;;4963026;28;45835;-59
2023/06/02 06:22:12;;;;;;;5.07;3.00;;;22.20;41.90;;;;;;4966331;28;45782;-57
2023/06/02 06:24:37;;;;;;;9.70;3.03;;;22.20;41.80;;;;;;4972641;28;45033;-60
2023/06/02 06:27:03;;;;;;;4.40;2.67;;;22.20;41.80;;;;;;4959084;28;45201;-60
2023/06/02 06:29:28;;;;;;;5.78;3.05;;;22.20;41.80;;;;;;4970730;28;45500;-57
2023/06/02 06:31:54;;;;;;;7.35;3.00;;;22.20;41.80;;;;;;4959357;28;45881;-58
2023/06/02 06:34:19;;;;;;;4.70;2.53;;;22.20;41.90;;;;;;4968275;28;45359;-55
2023/06/02 06:36:47;;;;;;;7.95;3.20;;;22.20;41.80;;;;;;4960582;28;45499;-59
2023/06/02 06:39:12;;;;;;;6.63;3.22;;;22.20;41.80;;;;;;4968210;28;45575;-60
2023/06/02 06:41:40;;;;;;;4.40;2.65;;;22.20;41.70;;;;;;4968228;28;45938;-60
2023/06/02 06:44:06;;;;;;;6.90;3.08;;;22.20;41.80;;;;;;4969812;28;45555;-60
2023/06/02 06:46:31;;;;;;;6.07;3.20;;;22.20;41.70;;;;;;4961072;28;45449;-57
2023/06/02 06:48:57;;;;;;;7.25;3.38;;;22.20;41.70;;;;;;4968386;28;45195;-57
2023/06/02 06:51:23;;;;;;;8.63;3.25;;;22.20;41.80;;;;;;4961394;28;45962;-59
2023/06/02 06:53:48;;;;;;;5.40;3.05;;;22.30;41.70;;;;;;4958497;28;45104;-59
2023/06/02 06:56:14;;;;;;;4.30;2.78;;;22.30;41.70;;;;;;4971148;28;45573;-60
2023/06/02 06:58:40;;;;;;;6.43;3.22;;;22.30;41.80;;;;;;4969556;28;45540;-60
2023/06/02 07:01:05;;;;;;;7.93;3.38;;;22.30;41.90;;;;;;4961980;28;46200;-59
2023/06/02 07:03:31;;;;;;;3.80;2.55;;;22.30;41.80;;;;;;4971215;28;45437;-57
2023/06/02 07:05:56;;;;;;;5.45;2.88;;;22.40;41.90;;;;;;4964392;28;45278;-59
2023/06/02 07:08:22;;;;;;;8.15;2.50;;;22.30;41.90;;;;;;4973173;28;45115;-61
2023/06/02 07:10:47;;;;;;;4.90;2.90;;;22.30;41.90;;;;;;4959706;28;46127;-60
2023/06/02 07:13:13;;;;;;;5.80;2.60;;;22.40;41.80;;;;;;4961818;28;45627;-60
2023/06/02 07:15:38;;;;;;;5.07;2.67;;;22.40;41.90;;;;;;4970821;28;45391;-60
2023/06/02 07:18:04;;;;;;;7.18;3.10;;;22.30;41.90;;;;;;4972089;28;44999;-58
2023/06/02 07:20:30;;;;;;;4.28;2.40;;;22.40;41.90;;;;;;4961983;28;47469;-61
2023/06/02 07:22:56;;;;;;;7.07;3.10;;;22.40;42.00;;;;;;4954588;28;45691;-60
2023/06/02 07:25:22;;;;;;;5.15;3.42;;;22.50;41.90;;;;;;4962406;28;45965;-60
2023/06/02 07:27:47;;;;;;;7.30;3.05;;;22.50;42.00;;;;;;4961829;28;46161;-62
2023/06/02 07:30:13;;;;;;;3.92;3.03;;;22.50;42.00;;;;;;4964807;28;47166;-64
2023/06/02 07:32:38;;;;;;;8.20;3.28;;;22.50;41.90;;;;;;4967393;28;45454;-60
2023/06/02 07:35:04;;;;;;;4.90;2.90;;;22.50;42.00;;;;;;4957001;28;45458;-65
2023/06/02 07:37:30;;;;;;;6.40;2.80;;;22.50;41.90;;;;;;4969646;28;45577;-60
2023/06/02 07:39:55;;;;;;;5.25;2.88;;;22.50;41.90;;;;;;4962741;28;45497;-59
2023/06/02 07:42:21;;;;;;;5.30;3.17;;;22.50;41.90;;;;;;4954535;28;45115;-58
2023/06/02 07:44:47;;;;;;;6.18;2.95;;;22.50;41.80;;;;;;4969641;28;45560;-59
2023/06/02 07:47:13;;;;;;;4.78;2.70;;;22.50;41.80;;;;;;4953999;28;45944;-58
2023/06/02 07:49:39;;;;;;;5.65;2.60;;;22.50;41.80;;;;;;4960314;28;46616;-61
2023/06/02 07:52:04;;;;;;;8.55;3.15;;;22.50;41.90;;;;;;4963244;28;45372;-60
2023/06/02 07:54:30;;;;;;;8.30;2.80;;;22.60;42.00;;;;;;4968173;28;45430;-52
2023/06/02 07:56:56;;;;;;;4.75;2.90;;;22.60;42.00;;;;;;4952529;28;45038;-59
2023/06/02 07:59:23;;;;;;;4.60;2.70;;;22.70;41.90;;;;;;4972283;28;45973;-53
2023/06/02 08:01:48;;;;;;;8.40;3.55;;;22.70;41.90;;;;;;4959144;28;45160;-54
2023/06/02 08:04:14;;;;;;;4.88;2.92;;;22.70;41.90;;;;;;4962659;28;45495;-58
2023/06/02 08:06:39;;;;;;;4.43;2.83;;;22.70;41.90;;;;;;4968326;28;45665;-60
2023/06/02 08:09:05;;;;;;;7.07;2.72;;;22.70;42.10;;;;;;4965268;28;45839;-64
2023/06/02 08:11:31;;;;;;;8.02;3.38;;;22.80;42.10;;;;;;4960750;28;45624;-53
2023/06/02 08:13:56;;;;;;;7.45;2.58;;;22.80;41.90;;;;;;4974674;28;45466;-54
2023/06/02 08:16:23;;;;;;;5.38;2.80;;;22.80;41.80;;;;;;4965420;28;45087;-55
2023/06/02 08:18:49;;;;;;;4.72;2.92;;;22.80;41.80;;;;;;4962670;28;46317;-53
2023/06/02 08:21:15;;;;;;;6.25;3.58;;;22.80;41.90;;;;;;4958190;28;45235;-58
2023/06/02 08:23:40;;;;;;;6.15;3.85;;;22.80;41.80;;;;;;4971217;28;45144;-57
2023/06/02 08:26:06;;;;;;;8.20;3.97;;;22.80;41.70;;;;;;4958493;28;45536;-60
2023/06/02 08:28:33;;;;;;;6.25;3.28;;;22.90;41.70;;;;;;4968235;28;46128;-61
2023/06/02 08:31:00;;;;;;;7.10;3.38;;;22.90;41.70;;;;;;4958746;28;44962;-55
2023/06/02 08:33:25;;;;;;;5.88;3.22;;;23.00;41.80;;;;;;4962057;28;45479;-57
2023/06/02 08:35:52;;;;;;;7.55;3.97;;;23.00;41.70;;;;;;4951344;28;46631;-62
2023/06/02 08:38:18;;;;;;;5.72;3.40;;;23.00;41.70;;;;;;4955677;28;45888;-56
2023/06/02 08:40:46;;;;;;;5.70;3.38;;;23.00;41.60;;;;;;4957774;28;45355;-56
2023/06/02 08:43:32;;;;;;;7.63;3.22;;;23.10;41.70;;;;;;4971657;28;45947;-55
2023/06/02 08:46:17;;;;;;;6.65;3.17;;;23.10;41.80;;;;;;4939747;28;45511;-59
2023/06/02 08:48:45;;;;;;;5.78;3.15;;;23.10;41.40;;;;;;4962162;28;45772;-56
2023/06/02 08:51:10;;;;;;;6.43;3.20;;;23.20;41.40;;;;;;4965392;28;45268;-54
2023/06/02 08:53:36;;;;;;;6.18;3.10;;;23.20;41.30;;;;;;4976476;28;45353;-55
2023/06/02 08:56:02;;;;;;;4.85;2.95;;;23.20;41.30;;;;;;4961551;28;46048;-56
2023/06/02 08:58:28;;;;;;;5.07;2.90;;;23.20;41.30;;;;;;4969887;28;45971;-60
2023/06/02 09:00:54;;;;;;;8.98;3.00;;;23.20;41.20;;;;;;4953211;28;45539;-60
2023/06/02 09:03:21;;;;;;;4.47;2.30;;;23.30;41.30;;;;;;4957354;28;48071;-58
2023/06/02 09:05:46;;;;;;;4.95;2.70;;;23.30;41.30;;;;;;4963869;28;44844;-57
2023/06/02 09:08:14;;;;;;;4.65;2.92;;;23.30;41.20;;;;;;4965144;28;46470;-57
2023/06/02 09:10:44;;;;;;;4.93;2.90;;;23.40;41.20;;;;;;4938697;28;45089;-58
2023/06/02 09:13:10;;;;;;;7.15;3.03;;;23.40;40.90;;;;;;4967263;28;45369;-59
2023/06/02 09:15:38;;;;;;;7.40;3.10;;;23.40;40.90;;;;;;4964633;28;45288;-58
2023/06/02 09:18:11;;;;;;;4.50;2.65;;;23.40;40.80;;;;;;4957498;28;47126;-58
2023/06/02 09:20:38;;;;;;;5.25;2.92;;;23.50;41.00;;;;;;4961851;28;45361;-59
2023/06/02 09:23:04;;;;;;;5.63;2.95;;;23.50;40.90;;;;;;4964589;28;45315;-54
2023/06/02 09:25:29;;;;;;;4.25;2.63;;;23.50;40.70;;;;;;4965581;28;45042;-53
2023/06/02 09:27:59;;;;;;;5.38;2.63;;;23.50;40.60;;;;;;4969435;28;45846;-59
2023/06/02 09:30:25;;;;;;;5.00;2.83;;;23.50;40.50;;;;;;4947449;28;45316;-61
2023/06/02 09:32:55;;;;;;;4.95;2.72;;;23.60;41.20;;;;;;4952933;28;45359;-57
2023/06/02 09:35:37;;;;;;;4.07;2.10;;;23.60;40.50;;;;;;4956301;28;45232;-50
2023/06/02 09:38:07;;;;;;;6.75;2.38;;;23.70;40.30;;;;;;4966289;28;46148;-55
2023/06/02 09:40:34;;;;;;;6.63;2.45;;;23.70;40.30;;;;;;4959622;28;45465;-57
2023/06/02 09:43:04;;;;;;;5.97;2.45;;;23.70;40.00;;;;;;4962720;28;44927;-53
2023/06/02 09:45:30;;;;;;;4.15;2.53;;;23.70;40.00;;;;;;4962784;28;46108;-59
2023/06/02 09:47:55;;;;;;;3.53;2.00;;;23.70;40.00;;;;;;4968389;28;47184;-55
2023/06/02 09:50:35;;;;;;;4.10;2.13;;;23.70;40.00;;;;;;4967072;28;45543;-52
2023/06/02 09:53:05;;;;;;;5.25;2.40;;;23.80;39.90;;;;;;4962274;28;45390;-60
2023/06/02 09:55:32;;;;;;;5.35;2.30;;;23.80;39.70;;;;;;4963049;28;45169;-51
2023/06/02 09:57:58;;;;;;;6.07;2.50;;;23.80;39.70;;;;;;4971388;28;46169;-60
2023/06/02 10:00:24;;;;;;;5.38;2.25;;;23.80;39.60;;;;;;4943788;28;45382;-55
2023/06/02 10:02:50;;;;;;;5.47;2.28;;;23.80;39.60;;;;;;4949925;28;44667;-56
2023/06/02 10:05:16;;;;;;;4.72;2.22;;;23.90;39.80;;;;;;4966554;28;46661;-59
2023/06/02 10:08:01;;;;;;;2.38;1.98;;;23.90;39.50;;;;;;4971387;28;45927;-59
2023/06/02 10:10:51;;;;;;;5.15;2.30;;;23.90;39.20;;;;;;4963498;28;46170;-59
2023/06/02 10:13:20;;;;;;;3.45;2.10;;;23.90;39.20;;;;;;4931425;28;45094;-54
2023/06/02 10:15:57;;;;;;;5.25;2.50;;;23.90;39.20;;;;;;4964452;28;45477;-59
2023/06/02 10:18:31;;;;;;;4.85;2.28;;;24.00;39.20;;;;;;4952882;28;45974;-55
2023/06/02 10:21:18;;;;;;;4.53;2.15;;;24.00;38.90;;;;;;4956518;28;45350;-57
2023/06/02 10:23:55;;;;;;;4.60;2.15;;;24.00;38.50;;;;;;4943434;28;45681;-59
2023/06/02 10:26:46;;;;;;;2.90;1.77;;;24.10;38.70;;;;;;4943347;28;45671;-57
2023/06/02 10:29:12;;;;;;;3.75;1.80;;;24.10;38.60;;;;;;4964603;28;46081;-57
2023/06/02 10:31:37;;;;;;;3.45;1.83;;;24.00;38.60;;;;;;4936948;28;45493;-60
2023/06/02 10:34:04;;;;;;;4.18;2.00;;;24.00;38.70;;;;;;4949283;28;45465;-63
2023/06/02 10:37:00;;;;;;;4.15;1.83;;;24.00;38.70;;;;;;4961280;28;45297;-54
2023/06/02 10:39:44;;;;;;;6.50;2.00;;;24.10;38.60;;;;;;4967494;28;46105;-58
2023/06/02 10:42:16;;;;;;;3.05;1.80;;;24.10;38.50;;;;;;4960849;28;45325;-56
2023/06/02 10:44:41;;;;;;;2.90;1.67;;;24.10;38.20;;;;;;4971747;28;45342;-56
2023/06/02 10:47:19;;;;;;;3.13;1.80;;;24.20;38.30;;;;;;4958790;28;45822;-56
2023/06/02 10:50:04;;;;;;;3.63;1.90;;;24.10;38.10;;;;;;4967738;28;46079;-56
2023/06/02 10:52:31;;;;;;;4.32;1.98;;;24.20;38.00;;;;;;4961724;28;45548;-53
2023/06/02 10:55:11;;;;;;;3.72;2.00;;;24.20;38.00;;;;;;4968977;28;44777;-56
2023/06/02 10:57:50;;;;;;;3.65;2.20;;;24.20;37.70;;;;;;4969826;28;45220;-54
2023/06/02 11:00:35;;;;;;;3.50;1.80;;;24.20;37.80;;;;;;4961283;28;47214;-56
2023/06/02 11:03:04;;;;;;;3.60;1.60;;;24.30;37.60;;;;;;4961495;28;45213;-62
2023/06/02 11:05:31;;;;;;;4.28;1.70;;;24.30;37.80;;;;;;4958990;28;45241;-60
2023/06/02 11:08:15;;;;;;;4.13;1.92;;;24.30;37.80;;;;;;4967257;28;45355;-63
2023/06/02 11:10:42;;;;;;;5.03;2.25;;;24.40;37.50;;;;;;4962597;28;45643;-55
2023/06/02 11:13:08;;;;;;;5.30;2.40;;;24.30;37.60;;;;;;4958325;28;45677;-59
2023/06/02 11:15:34;;;;;;;8.00;2.13;;;24.40;37.70;;;;;;4958889;28;45615;-59
2023/06/02 11:18:03;;;;;;;6.68;2.00;;;24.30;37.70;;;;;;4951513;28;45550;-58
2023/06/02 11:20:36;;;;;;;3.95;1.80;;;24.40;37.70;;;;;;4966010;28;45919;-58
2023/06/02 11:23:05;;;;;;;7.38;2.05;;;24.40;37.60;;;;;;4966655;28;45537;-60
2023/06/02 11:25:31;;;;;;;5.18;2.00;;;24.40;37.60;;;;;;4960465;28;45492;-61
2023/06/02 11:27:56;;;;;;;5.63;1.92;;;24.40;37.50;;;;;;4967529;28;45309;-60
2023/06/02 11:30:23;;;;;;;3.20;1.67;;;24.40;37.40;;;;;;4946552;28;47163;-58
2023/06/02 11:32:49;;;;;;;4.03;1.88;;;24.40;37.40;;;;;;4965293;28;44674;-57
2023/06/02 11:35:16;;;;;;;5.50;2.25;;;24.40;37.40;;;;;;4962178;28;44953;-57
2023/06/02 11:37:42;;;;;;;4.18;1.55;;;24.40;37.40;;;;;;4951430;28;46060;-59
2023/06/02 11:40:12;;;;;;;5.38;1.77;;;24.50;37.40;;;;;;4965843;28;46230;-56
2023/06/02 11:42:39;;;;;;;4.30;1.75;;;24.50;37.40;;;;;;4969124;28;45133;-57
2023/06/02 11:45:06;;;;;;;4.70;1.92;;;24.50;37.40;;;;;;4967298;28;45507;-66
2023/06/02 11:47:32;;;;;;;6.78;1.73;;;24.50;37.40;;;;;;4959434;28;45716;-54
2023/06/02 11:49:58;;;;;;;4.00;1.75;;;24.50;37.40;;;;;;4964887;28;45921;-54
2023/06/02 11:52:23;;;;;;;5.07;1.70;;;24.60;37.50;;;;;;4967372;28;45342;-52
2023/06/02 11:54:52;;;;;;;4.40;1.75;;;24.60;37.40;;;;;;4970846;28;45267;-53
2023/06/02 11:57:28;;;;;;;3.50;1.90;;;24.60;37.30;;;;;;4965243;28;45063;-64
2023/06/02 12:00:09;;;;;;;7.70;1.77;;;24.60;37.40;;;;;;4963691;28;46765;-58
2023/06/02 12:02:48;;;;;;;2.88;1.42;;;24.60;37.20;;;;;;4962132;28;45306;-62
2023/06/02 12:05:33;;;;;;;2.67;1.48;;;24.70;37.20;;;;;;4963865;28;44724;-57
2023/06/02 12:08:20;;;;;;;2.72;1.63;;;24.70;37.20;;;;;;4966032;28;45187;-59
2023/06/02 12:10:46;;;;;;;3.90;1.90;;;24.80;37.30;;;;;;4969825;28;46227;-66
2023/06/02 12:13:28;;;;;;;3.08;1.70;;;24.80;37.40;;;;;;4969282;28;45317;-61
2023/06/02 12:15:53;;;;;;;3.10;1.50;;;24.80;37.30;;;;;;4963487;28;45685;-53
2023/06/02 12:18:32;;;;;;;3.95;2.03;;;24.80;37.40;;;;;;4969143;28;45376;-54
2023/06/02 12:20:59;;;;;;;3.22;1.45;;;24.80;37.30;;;;;;4968337;28;46000;-57
2023/06/02 12:23:44;;;;;;;4.47;1.83;;;24.90;37.30;;;;;;4944880;28;46311;-56
2023/06/02 12:26:09;;;;;;;4.28;1.77;;;24.90;37.30;;;;;;4963246;28;45202;-59
2023/06/02 12:28:35;;;;;;;4.70;1.75;;;24.90;37.30;;;;;;4968028;28;45436;-57
2023/06/02 12:31:00;;;;;;;3.80;1.90;;;24.90;37.30;;;;;;4961982;28;45377;-62
2023/06/02 12:33:26;;;;;;;3.50;1.80;;;24.90;37.20;;;;;;4968120;28;45060;-61
2023/06/02 12:35:51;;;;;;;6.75;2.08;;;24.90;37.20;;;;;;4966503;28;44737;-65
2023/06/02 12:38:17;;;;;;;3.35;1.60;;;25.00;37.20;;;;;;4952380;28;45527;-53
2023/06/02 12:40:43;;;;;;;4.57;1.73;;;25.00;37.20;;;;;;4971222;28;45936;-62
2023/06/02 12:43:08;;;;;;;3.42;1.58;;;25.00;37.00;;;;;;4969749;28;45466;-58
2023/06/02 12:45:34;;;;;;;3.03;1.60;;;25.00;37.00;;;;;;4967557;28;44865;-57
2023/06/02 12:48:01;;;;;;;4.65;1.98;;;25.10;37.10;;;;;;4972738;28;45374;-53
2023/06/02 12:50:27;;;;;;;3.08;1.38;;;25.10;37.00;;;;;;4963486;28;45435;-63
2023/06/02 12:52:52;;;;;;;5.55;1.48;;;25.10;36.80;;;;;;4973161;28;44669;-58
2023/06/02 12:55:18;;;;;;;5.07;1.65;;;25.10;36.80;;;;;;4964266;28;45409;-58
2023/06/02 12:57:44;;;;;;;5.18;1.75;;;25.10;36.80;;;;;;4964522;28;45194;-55
2023/06/02 13:00:10;;;;;;;3.20;1.48;;;25.10;36.80;;;;;;4959415;28;45092;-67
2023/06/02 13:02:36;;;;;;;4.95;1.80;;;25.20;36.80;;;;;;4961316;28;46674;-55
2023/06/02 13:05:02;;;;;;;4.63;1.80;;;25.20;36.80;;;;;;4969064;28;45258;-60
2023/06/02 13:07:29;;;;;;;4.53;1.42;;;25.30;36.80;;;;;;4960555;28;44747;-56
2023/06/02 13:09:55;;;;;;;3.15;1.65;;;25.30;36.80;;;;;;4957925;28;45916;-57
2023/06/02 13:12:21;;;;;;;2.80;1.42;;;25.30;36.70;;;;;;4944899;28;45640;-55
2023/06/02 13:14:46;;;;;;;2.58;1.55;;;25.30;36.70;;;;;;4970549;28;45600;-57
2023/06/02 13:17:12;;;;;;;4.82;1.92;;;25.40;36.70;;;;;;4945083;28;45499;-64
2023/06/02 13:19:39;;;;;;;4.35;1.65;;;25.40;36.70;;;;;;4955791;28;45870;-60
2023/06/02 13:22:05;;;;;;;6.53;1.80;;;25.40;36.70;;;;;;4960534;28;45593;-57
2023/06/02 13:24:31;;;;;;;4.57;1.45;;;25.40;36.70;;;;;;4961484;28;45724;-61
2023/06/02 13:26:57;;;;;;;3.05;1.58;;;25.40;36.60;;;;;;4950921;28;45327;-57
2023/06/02 13:29:22;;;;;;;2.30;1.45;;;25.40;36.50;;;;;;4966905;28;45242;-56
2023/06/02 13:31:48;;;;;;;4.30;1.80;;;25.50;36.50;;;;;;4957847;28;45324;-60
2023/06/02 13:34:13;;;;;;;8.60;2.50;;;25.50;36.40;;;;;;4947799;28;45289;-56
2023/06/02 13:36:39;;;;;;;4.35;1.98;;;25.50;36.30;;;;;;4964662;28;45266;-56
2023/06/02 13:39:04;;;;;;;5.90;1.80;;;25.50;36.20;;;;;;4966543;28;45937;-57
2023/06/02 13:41:30;;;;;;;6.53;2.25;;;25.50;36.00;;;;;;4958902;28;45270;-60
2023/06/02 13:43:57;;;;;;;6.40;2.00;;;25.60;36.10;;;;;;4968941;28;45584;-60
2023/06/02 13:46:22;;;;;;;3.60;1.45;;;25.60;36.00;;;;;;4961496;28;45245;-58
2023/06/02 13:48:48;;;;;;;3.75;1.83;;;25.60;36.00;;;;;;4965567;28;47157;-58
2023/06/02 13:51:14;;;;;;;3.60;1.90;;;25.60;36.00;;;;;;4960220;28;45258;-61
2023/06/02 13:53:39;;;;;;;3.78;1.73;;;25.60;35.90;;;;;;4970384;28;45633;-57
2023/06/02 13:56:05;;;;;;;4.43;1.80;;;25.70;35.90;;;;;;4961278;28;45082;-62
2023/06/02 13:58:35;;;;;;;3.70;1.58;;;25.70;35.90;;;;;;4949069;28;45968;-62
2023/06/02 14:01:02;;;;;;;4.53;1.60;;;25.70;35.70;;;;;;4948833;28;45368;-62
2023/06/02 14:03:27;;;;;;;3.60;1.92;;;25.70;35.80;;;;;;4950200;28;45075;-55
2023/06/02 14:05:53;;;;;;;4.45;1.85;;;25.70;35.60;;;;;;4952239;28;45542;-56
2023/06/02 14:08:18;;;;;;;4.03;1.77;;;25.70;35.60;;;;;;4955009;28;45896;-62
2023/06/02 14:10:44;;;;;;;5.60;2.00;;;25.70;35.40;;;;;;4952067;28;45297;-54
2023/06/02 14:13:10;;;;;;;7.57;2.13;;;25.70;35.30;;;;;;4950165;28;46088;-70
2023/06/02 14:15:35;;;;;;;6.15;2.05;;;25.70;35.30;;;;;;4953627;28;45263;-53
2023/06/02 14:18:01;;;;;;;7.50;1.80;;;25.80;35.30;;;;;;4959225;28;45943;-64
2023/06/02 14:20:27;;;;;;;6.13;1.98;;;25.70;35.20;;;;;;4952111;28;45541;-69
2023/06/02 14:22:52;;;;;;;4.65;2.03;;;25.80;35.30;;;;;;4966387;28;45578;-60
2023/06/02 14:25:18;;;;;;;5.97;2.05;;;25.80;35.30;;;;;;4957731;28;45216;-54
2023/06/02 14:27:43;;;;;;;5.38;1.85;;;25.80;35.20;;;;;;4964050;28;45245;-55
2023/06/02 14:30:09;;;;;;;6.82;1.80;;;25.80;35.10;;;;;;4954534;28;45797;-69
2023/06/02 14:32:35;;;;;;;7.05;1.70;;;25.80;35.10;;;;;;4955006;28;45262;-54
2023/06/02 14:35:00;;;;;;;3.25;1.90;;;25.80;35.00;;;;;;4966001;28;45299;-53
2023/06/02 14:37:26;;;;;;;3.67;1.92;;;25.80;35.10;;;;;;4957959;28;45957;-58
2023/06/02 14:39:55;;;;;;;6.97;2.13;;;25.90;35.10;;;;;;4961062;28;45563;-55
2023/06/02 14:42:21;;;;;;;4.97;1.90;;;25.90;35.10;;;;;;4955614;28;45147;-62
2023/06/02 14:44:46;;;;;;;4.00;1.77;;;25.90;35.00;;;;;;4962592;28;44867;-62
2023/06/02 14:47:12;;;;;;;9.80;2.08;;;25.90;35.00;;;;;;4955016;28;46036;-69
2023/06/02 14:49:37;;;;;;;3.95;1.77;;;25.90;35.00;;;;;;4961260;28;45640;-62
2023/06/02 14:52:03;;;;;;;2.85;1.48;;;25.90;35.00;;;;;;4956976;28;45392;-53
2023/06/02 14:54:28;;;;;;;4.63;1.60;;;26.00;35.10;;;;;;4961869;28;44721;-57
2023/06/02 14:56:54;;;;;;;4.32;1.58;;;26.00;35.00;;;;;;4955641;28;46190;-55
2023/06/02 14:59:19;;;;;;;3.67;1.70;;;26.00;35.10;;;;;;4964109;28;45370;-53
2023/06/02 15:01:45;;;;;;;6.88;1.90;;;26.00;35.00;;;;;;4955127;28;45223;-53
2023/06/02 15:04:11;;;;;;;5.20;2.00;;;26.00;35.00;;;;;;4973048;28;45650;-61
2023/06/02 15:06:37;;;;;;;5.53;1.75;;;26.00;35.10;;;;;;4953274;28;46010;-61
2023/06/02 15:09:03;;;;;;;6.20;2.05;;;26.00;35.20;;;;;;4949407;28;45689;-57
2023/06/02 15:11:29;;;;;;;2.53;1.75;;;26.00;35.00;;;;;;4963202;28;45150;-58
2023/06/02 15:13:55;;;;;;;4.90;1.85;;;26.00;35.00;;;;;;4974143;28;45063;-56
2023/06/02 15:16:20;;;;;;;7.03;2.40;;;26.00;35.00;;;;;;4962496;28;45983;-59
2023/06/02 15:18:46;;;;;;;4.18;1.73;;;26.00;34.90;;;;;;4971346;28;45118;-67
2023/06/02 15:21:11;;;;;;;2.85;2.03;;;26.00;34.90;;;;;;4961421;28;45176;-54
2023/06/02 15:23:37;;;;;;;3.63;1.92;;;26.00;35.00;;;;;;4969706;28;45488;-57
2023/06/02 15:26:02;;;;;;;9.75;1.80;;;26.00;34.90;;;;;;4966447;28;46076;-57
2023/06/02 15:28:28;;;;;;;3.20;1.85;;;26.00;34.80;;;;;;4969407;28;47962;-58
2023/06/02 15:30:54;;;;;;;4.13;1.83;;;26.00;34.70;;;;;;4962315;28;45377;-62
2023/06/02 15:33:20;;;;;;;5.03;1.70;;;26.00;34.80;;;;;;4964683;28;45364;-58
2023/06/02 15:35:46;;;;;;;3.10;1.90;;;26.00;34.70;;;;;;4938406;28;46053;-56
2023/06/02 15:38:11;;;;;;;3.72;1.80;;;26.00;34.50;;;;;;4969388;28;45600;-58
2023/06/02 15:40:37;;;;;;;5.45;1.80;;;26.10;34.40;;;;;;4961849;28;45308;-61
2023/06/02 15:43:02;;;;;;;6.60;2.50;;;26.10;34.40;;;;;;4965114;28;45518;-61
2023/06/02 15:45:28;;;;;;;7.13;2.60;;;26.10;34.30;;;;;;4960666;28;45935;-63
2023/06/02 15:47:53;;;;;;;6.55;2.38;;;26.10;34.30;;;;;;4964235;28;45198;-61